Portada
METAR-TAF:

METAR-TAF

Aeropuertos :

Aeropuerto de Sanikiluaq

Sanikiluaq, Nunavut, Canadá

latitud: 56-32N, longitud: 079-15W, altitud: 32 m

Observación

El informe se hizo hace 27 minutos, a las 13:00 UTC
Viento 14 kt del oeste-noroeste con ráfagas de 20 kt
Temperatura -4°C
Humedad 74%
Presión 1007 hPa
Visibilidad: 19.3 km
Cielo nuboso a una altura de 1400 ft

METAR: CYSK 141300Z 30014G20KT 12SM BKN014 M04/M08 A2975 RMK SC5 SLP078

Hora: 08:27 (13:27 UTC)


TAF: falta

Observaciones y pronósticos meteorológicos de más de 4000 aeropuertos (mensajes METAR y TAF).

Los puntos amarillos y rojos representan las estaciones disponibles.

Ponga el ratón en el punto deseado para ver el nombre de la estación.

Haga clic para ver las observaciones y los pronósticos meteorológicos.

Para cambiar el mapa : haga clic en los botones verdes con una cruz de color negro para hacer un zoom, en el botón verde con un guión para alejar o en las flechas verdes para mapas adyacentes.


METAR-TAF: